Terminal Aerodrome Forecast
Issued by NWS Sterling, VA

Current Version | Previous Version | Graphics & Text | Print | Product List | Glossary On
Versions: 1 2 3 4 5 6 7 8 9 10 11 12 13 14 15 16 17 18 19 20 21 22 23 24 25 26 27 28 29 30
374
FTUS41 KLWX 211128
TAFIAD
TAF
KIAD 211128Z 2112/2218 07007KT 5SM RA BR OVC020
     FM211400 08010G17KT 3SM RA BR OVC010
     FM211700 08009KT 3SM -RA BR OVC008
     FM211900 05007KT 5SM BR OVC008
     FM212200 01008KT 5SM BR OVC010
     FM220900 34006KT 3SM -SHRA BR OVC008
     FM221200 34007KT P6SM OVC010
     FM221400 34008KT P6SM OVC025
     FM221600 34008KT 5SM -SHRA OVC025=

USA.gov is the U.S. government's official web portal to all federal, state and local government web resources and services.